sensor_id;sensor_type;location;lat;lon;timestamp;P1;durP1;ratioP1;P2;durP2;ratioP2
13897;SDS011;7019;50.766;4.474;2023-07-24T00:00:45;10.17;;;4.93;;
13897;SDS011;7019;50.766;4.474;2023-07-24T00:03:12;9.00;;;5.17;;
13897;SDS011;7019;50.766;4.474;2023-07-24T00:05:39;10.27;;;5.83;;
13897;SDS011;7019;50.766;4.474;2023-07-24T00:08:06;11.83;;;6.27;;
13897;SDS011;7019;50.766;4.474;2023-07-24T00:10:33;10.83;;;5.90;;
13897;SDS011;7019;50.766;4.474;2023-07-24T00:13:00;13.93;;;6.50;;
13897;SDS011;7019;50.766;4.474;2023-07-24T00:15:29;9.90;;;5.30;;
13897;SDS011;7019;50.766;4.474;2023-07-24T00:17:56;11.40;;;5.87;;
13897;SDS011;7019;50.766;4.474;2023-07-24T00:20:23;13.10;;;6.33;;
13897;SDS011;7019;50.766;4.474;2023-07-24T00:22:51;15.73;;;6.00;;
13897;SDS011;7019;50.766;4.474;2023-07-24T00:25:18;8.87;;;5.70;;
13897;SDS011;7019;50.766;4.474;2023-07-24T00:27:45;12.33;;;6.60;;
13897;SDS011;7019;50.766;4.474;2023-07-24T00:30:12;13.67;;;6.13;;
13897;SDS011;7019;50.766;4.474;2023-07-24T00:32:40;8.33;;;5.63;;
13897;SDS011;7019;50.766;4.474;2023-07-24T00:35:08;14.27;;;5.77;;
13897;SDS011;7019;50.766;4.474;2023-07-24T00:37:35;11.93;;;6.07;;
13897;SDS011;7019;50.766;4.474;2023-07-24T00:40:03;13.27;;;6.93;;
13897;SDS011;7019;50.766;4.474;2023-07-24T00:42:31;17.10;;;5.77;;
13897;SDS011;7019;50.766;4.474;2023-07-24T00:44:58;13.70;;;5.50;;
13897;SDS011;7019;50.766;4.474;2023-07-24T00:47:25;11.93;;;5.27;;
13897;SDS011;7019;50.766;4.474;2023-07-24T00:49:54;13.40;;;5.47;;
13897;SDS011;7019;50.766;4.474;2023-07-24T00:52:22;12.03;;;5.40;;
13897;SDS011;7019;50.766;4.474;2023-07-24T00:54:49;13.07;;;6.93;;
13897;SDS011;7019;50.766;4.474;2023-07-24T00:57:17;14.73;;;5.73;;
13897;SDS011;7019;50.766;4.474;2023-07-24T00:59:44;13.30;;;5.43;;
13897;SDS011;7019;50.766;4.474;2023-07-24T01:02:12;10.73;;;6.20;;
13897;SDS011;7019;50.766;4.474;2023-07-24T01:04:39;9.30;;;5.83;;
13897;SDS011;7019;50.766;4.474;2023-07-24T01:07:08;6.87;;;4.77;;
13897;SDS011;7019;50.766;4.474;2023-07-24T01:09:35;8.10;;;5.27;;
13897;SDS011;7019;50.766;4.474;2023-07-24T01:12:04;11.20;;;5.90;;
13897;SDS011;7019;50.766;4.474;2023-07-24T01:14:38;15.80;;;5.37;;
13897;SDS011;7019;50.766;4.474;2023-07-24T01:17:10;13.33;;;5.63;;
13897;SDS011;7019;50.766;4.474;2023-07-24T01:19:43;8.17;;;4.90;;
13897;SDS011;7019;50.766;4.474;2023-07-24T01:22:18;13.27;;;5.73;;
13897;SDS011;7019;50.766;4.474;2023-07-24T01:25:04;13.03;;;5.43;;
13897;SDS011;7019;50.766;4.474;2023-07-24T01:27:39;11.13;;;6.53;;
13897;SDS011;7019;50.766;4.474;2023-07-24T01:30:08;11.20;;;5.27;;
13897;SDS011;7019;50.766;4.474;2023-07-24T01:32:36;12.70;;;5.80;;
13897;SDS011;7019;50.766;4.474;2023-07-24T01:35:03;11.33;;;5.40;;
13897;SDS011;7019;50.766;4.474;2023-07-24T01:37:31;13.17;;;5.57;;
13897;SDS011;7019;50.766;4.474;2023-07-24T01:40:01;10.90;;;5.70;;
13897;SDS011;7019;50.766;4.474;2023-07-24T01:42:30;9.37;;;5.17;;
13897;SDS011;7019;50.766;4.474;2023-07-24T01:44:59;14.80;;;6.20;;
13897;SDS011;7019;50.766;4.474;2023-07-24T01:47:26;9.13;;;5.87;;
13897;SDS011;7019;50.766;4.474;2023-07-24T01:49:53;10.83;;;5.43;;
13897;SDS011;7019;50.766;4.474;2023-07-24T01:52:20;10.30;;;4.80;;
13897;SDS011;7019;50.766;4.474;2023-07-24T01:54:47;9.93;;;5.10;;
13897;SDS011;7019;50.766;4.474;2023-07-24T01:57:15;10.17;;;5.37;;
13897;SDS011;7019;50.766;4.474;2023-07-24T01:59:42;7.63;;;5.20;;
13897;SDS011;7019;50.766;4.474;2023-07-24T02:02:11;9.53;;;5.10;;
13897;SDS011;7019;50.766;4.474;2023-07-24T02:04:38;8.33;;;5.37;;
13897;SDS011;7019;50.766;4.474;2023-07-24T02:07:05;10.03;;;5.03;;
13897;SDS011;7019;50.766;4.474;2023-07-24T02:09:32;7.07;;;4.60;;
13897;SDS011;7019;50.766;4.474;2023-07-24T02:12:00;10.50;;;5.33;;
13897;SDS011;7019;50.766;4.474;2023-07-24T02:14:27;9.57;;;5.57;;
13897;SDS011;7019;50.766;4.474;2023-07-24T02:16:54;8.07;;;4.53;;
13897;SDS011;7019;50.766;4.474;2023-07-24T02:19:23;8.83;;;6.33;;
13897;SDS011;7019;50.766;4.474;2023-07-24T02:21:50;8.87;;;5.07;;
13897;SDS011;7019;50.766;4.474;2023-07-24T02:24:17;7.47;;;4.53;;
13897;SDS011;7019;50.766;4.474;2023-07-24T02:26:44;9.70;;;5.17;;
13897;SDS011;7019;50.766;4.474;2023-07-24T02:29:11;7.83;;;4.37;;
13897;SDS011;7019;50.766;4.474;2023-07-24T02:31:38;7.53;;;5.63;;
13897;SDS011;7019;50.766;4.474;2023-07-24T02:34:05;9.57;;;5.13;;
13897;SDS011;7019;50.766;4.474;2023-07-24T02:36:34;8.13;;;5.27;;
13897;SDS011;7019;50.766;4.474;2023-07-24T02:39:01;9.67;;;5.50;;
13897;SDS011;7019;50.766;4.474;2023-07-24T02:41:28;8.37;;;5.10;;
13897;SDS011;7019;50.766;4.474;2023-07-24T02:43:55;10.70;;;5.10;;
13897;SDS011;7019;50.766;4.474;2023-07-24T02:46:23;11.27;;;4.67;;
13897;SDS011;7019;50.766;4.474;2023-07-24T02:48:50;9.87;;;4.03;;
13897;SDS011;7019;50.766;4.474;2023-07-24T02:51:17;9.33;;;4.53;;
13897;SDS011;7019;50.766;4.474;2023-07-24T02:53:45;9.10;;;4.47;;
13897;SDS011;7019;50.766;4.474;2023-07-24T02:56:12;6.97;;;4.47;;
13897;SDS011;7019;50.766;4.474;2023-07-24T02:58:40;11.67;;;4.33;;
13897;SDS011;7019;50.766;4.474;2023-07-24T03:01:07;6.73;;;4.40;;
13897;SDS011;7019;50.766;4.474;2023-07-24T03:03:35;7.90;;;4.70;;
13897;SDS011;7019;50.766;4.474;2023-07-24T03:06:02;8.27;;;4.40;;
13897;SDS011;7019;50.766;4.474;2023-07-24T03:08:29;6.27;;;4.60;;
13897;SDS011;7019;50.766;4.474;2023-07-24T03:10:58;6.03;;;4.13;;
13897;SDS011;7019;50.766;4.474;2023-07-24T03:13:27;6.37;;;3.90;;
13897;SDS011;7019;50.766;4.474;2023-07-24T03:15:55;6.13;;;3.67;;
13897;SDS011;7019;50.766;4.474;2023-07-24T03:18:23;5.87;;;3.73;;
13897;SDS011;7019;50.766;4.474;2023-07-24T03:20:51;8.63;;;3.97;;
13897;SDS011;7019;50.766;4.474;2023-07-24T03:23:18;6.00;;;3.60;;
13897;SDS011;7019;50.766;4.474;2023-07-24T03:25:45;8.03;;;3.70;;
13897;SDS011;7019;50.766;4.474;2023-07-24T03:28:13;6.37;;;4.00;;
13897;SDS011;7019;50.766;4.474;2023-07-24T03:30:41;7.13;;;4.57;;
13897;SDS011;7019;50.766;4.474;2023-07-24T03:33:08;6.47;;;3.80;;
13897;SDS011;7019;50.766;4.474;2023-07-24T03:35:37;7.43;;;3.67;;
13897;SDS011;7019;50.766;4.474;2023-07-24T03:38:04;5.30;;;4.10;;
13897;SDS011;7019;50.766;4.474;2023-07-24T03:40:31;7.03;;;3.93;;
13897;SDS011;7019;50.766;4.474;2023-07-24T03:42:58;4.87;;;2.97;;
13897;SDS011;7019;50.766;4.474;2023-07-24T03:45:27;4.20;;;2.37;;
13897;SDS011;7019;50.766;4.474;2023-07-24T03:47:54;5.57;;;2.47;;
13897;SDS011;7019;50.766;4.474;2023-07-24T03:50:21;3.57;;;2.47;;
13897;SDS011;7019;50.766;4.474;2023-07-24T03:52:48;5.33;;;1.83;;
13897;SDS011;7019;50.766;4.474;2023-07-24T03:55:15;2.80;;;1.90;;
13897;SDS011;7019;50.766;4.474;2023-07-24T03:57:42;4.33;;;2.17;;
13897;SDS011;7019;50.766;4.474;2023-07-24T04:00:09;2.27;;;1.93;;
13897;SDS011;7019;50.766;4.474;2023-07-24T04:02:39;3.93;;;2.23;;
13897;SDS011;7019;50.766;4.474;2023-07-24T04:05:06;3.37;;;2.13;;
13897;SDS011;7019;50.766;4.474;2023-07-24T04:07:33;2.33;;;2.10;;
13897;SDS011;7019;50.766;4.474;2023-07-24T04:10:02;2.67;;;2.10;;
13897;SDS011;7019;50.766;4.474;2023-07-24T04:12:29;3.50;;;2.20;;
13897;SDS011;7019;50.766;4.474;2023-07-24T04:14:56;3.80;;;2.10;;
13897;SDS011;7019;50.766;4.474;2023-07-24T04:17:23;3.27;;;2.43;;
13897;SDS011;7019;50.766;4.474;2023-07-24T04:19:52;2.47;;;2.10;;
13897;SDS011;7019;50.766;4.474;2023-07-24T04:22:19;3.33;;;2.00;;
13897;SDS011;7019;50.766;4.474;2023-07-24T04:24:46;3.13;;;2.60;;
13897;SDS011;7019;50.766;4.474;2023-07-24T04:27:13;3.93;;;1.63;;
13897;SDS011;7019;50.766;4.474;2023-07-24T04:29:40;4.07;;;2.10;;
13897;SDS011;7019;50.766;4.474;2023-07-24T04:32:07;3.07;;;2.20;;
13897;SDS011;7019;50.766;4.474;2023-07-24T04:34:34;3.80;;;2.30;;
13897;SDS011;7019;50.766;4.474;2023-07-24T04:37:03;3.10;;;2.30;;
13897;SDS011;7019;50.766;4.474;2023-07-24T04:39:30;3.27;;;2.30;;
13897;SDS011;7019;50.766;4.474;2023-07-24T04:41:58;3.07;;;2.10;;
13897;SDS011;7019;50.766;4.474;2023-07-24T04:44:25;3.33;;;2.40;;
13897;SDS011;7019;50.766;4.474;2023-07-24T04:46:52;3.33;;;1.93;;
13897;SDS011;7019;50.766;4.474;2023-07-24T04:49:21;3.70;;;2.10;;
13897;SDS011;7019;50.766;4.474;2023-07-24T04:51:48;3.87;;;1.67;;
13897;SDS011;7019;50.766;4.474;2023-07-24T04:54:16;3.90;;;2.17;;
13897;SDS011;7019;50.766;4.474;2023-07-24T04:56:43;2.83;;;1.87;;
13897;SDS011;7019;50.766;4.474;2023-07-24T04:59:11;4.00;;;1.87;;
13897;SDS011;7019;50.766;4.474;2023-07-24T05:01:38;3.10;;;2.00;;
13897;SDS011;7019;50.766;4.474;2023-07-24T05:04:05;2.77;;;2.33;;
13897;SDS011;7019;50.766;4.474;2023-07-24T05:06:32;3.03;;;2.07;;
13897;SDS011;7019;50.766;4.474;2023-07-24T05:09:00;3.93;;;2.20;;
13897;SDS011;7019;50.766;4.474;2023-07-24T05:11:29;2.37;;;2.17;;
13897;SDS011;7019;50.766;4.474;2023-07-24T05:13:56;2.47;;;2.27;;
13897;SDS011;7019;50.766;4.474;2023-07-24T05:16:23;8.50;;;4.10;;
13897;SDS011;7019;50.766;4.474;2023-07-24T05:18:50;3.10;;;2.80;;
13897;SDS011;7019;50.766;4.474;2023-07-24T05:21:17;4.33;;;2.53;;
13897;SDS011;7019;50.766;4.474;2023-07-24T05:23:44;3.80;;;2.40;;
13897;SDS011;7019;50.766;4.474;2023-07-24T05:26:11;2.80;;;2.40;;
13897;SDS011;7019;50.766;4.474;2023-07-24T05:28:39;3.67;;;2.03;;
13897;SDS011;7019;50.766;4.474;2023-07-24T05:31:06;3.83;;;1.90;;
13897;SDS011;7019;50.766;4.474;2023-07-24T05:33:34;2.30;;;1.80;;
13897;SDS011;7019;50.766;4.474;2023-07-24T05:36:01;3.00;;;2.00;;
13897;SDS011;7019;50.766;4.474;2023-07-24T05:38:30;2.83;;;1.70;;
13897;SDS011;7019;50.766;4.474;2023-07-24T05:40:57;2.70;;;1.87;;
13897;SDS011;7019;50.766;4.474;2023-07-24T05:43:25;2.63;;;2.07;;
13897;SDS011;7019;50.766;4.474;2023-07-24T05:45:55;2.00;;;1.80;;
13897;SDS011;7019;50.766;4.474;2023-07-24T05:48:23;5.53;;;1.77;;
13897;SDS011;7019;50.766;4.474;2023-07-24T05:50:51;2.60;;;2.03;;
13897;SDS011;7019;50.766;4.474;2023-07-24T05:53:18;2.27;;;2.07;;
13897;SDS011;7019;50.766;4.474;2023-07-24T05:55:45;2.70;;;2.00;;
13897;SDS011;7019;50.766;4.474;2023-07-24T05:58:12;2.67;;;1.77;;
13897;SDS011;7019;50.766;4.474;2023-07-24T06:00:41;2.10;;;1.77;;
13897;SDS011;7019;50.766;4.474;2023-07-24T06:03:10;1.77;;;1.63;;
13897;SDS011;7019;50.766;4.474;2023-07-24T06:05:37;1.87;;;1.57;;
13897;SDS011;7019;50.766;4.474;2023-07-24T06:08:04;2.43;;;1.80;;
13897;SDS011;7019;50.766;4.474;2023-07-24T06:10:33;1.50;;;1.40;;
13897;SDS011;7019;50.766;4.474;2023-07-24T06:13:00;1.30;;;1.17;;
13897;SDS011;7019;50.766;4.474;2023-07-24T06:15:28;2.03;;;1.40;;
13897;SDS011;7019;50.766;4.474;2023-07-24T06:17:55;2.07;;;1.40;;
13897;SDS011;7019;50.766;4.474;2023-07-24T06:20:26;1.60;;;1.40;;
13897;SDS011;7019;50.766;4.474;2023-07-24T06:22:53;2.07;;;1.53;;
13897;SDS011;7019;50.766;4.474;2023-07-24T06:25:20;3.40;;;1.30;;
13897;SDS011;7019;50.766;4.474;2023-07-24T06:27:47;1.37;;;1.17;;
13897;SDS011;7019;50.766;4.474;2023-07-24T06:30:14;1.90;;;1.50;;
13897;SDS011;7019;50.766;4.474;2023-07-24T06:32:42;2.23;;;1.20;;
13897;SDS011;7019;50.766;4.474;2023-07-24T06:35:09;1.50;;;1.10;;
13897;SDS011;7019;50.766;4.474;2023-07-24T06:37:37;1.37;;;1.13;;
13897;SDS011;7019;50.766;4.474;2023-07-24T06:40:05;1.70;;;1.20;;
13897;SDS011;7019;50.766;4.474;2023-07-24T06:42:33;1.43;;;1.30;;
13897;SDS011;7019;50.766;4.474;2023-07-24T06:45:00;1.83;;;1.20;;
13897;SDS011;7019;50.766;4.474;2023-07-24T06:47:27;1.33;;;1.20;;
13897;SDS011;7019;50.766;4.474;2023-07-24T06:49:54;3.27;;;1.30;;
13897;SDS011;7019;50.766;4.474;2023-07-24T06:52:22;1.70;;;1.30;;
13897;SDS011;7019;50.766;4.474;2023-07-24T06:54:51;1.47;;;1.20;;
13897;SDS011;7019;50.766;4.474;2023-07-24T06:57:18;2.13;;;1.47;;
13897;SDS011;7019;50.766;4.474;2023-07-24T06:59:45;1.67;;;1.38;;
13897;SDS011;7019;50.766;4.474;2023-07-24T07:02:12;1.13;;;1.03;;
13897;SDS011;7019;50.766;4.474;2023-07-24T07:04:39;2.38;;;1.45;;
13897;SDS011;7019;50.766;4.474;2023-07-24T07:07:06;1.58;;;1.30;;
13897;SDS011;7019;50.766;4.474;2023-07-24T07:09:33;2.30;;;1.23;;
13897;SDS011;7019;50.766;4.474;2023-07-24T07:12:02;2.37;;;1.40;;
13897;SDS011;7019;50.766;4.474;2023-07-24T07:14:29;2.57;;;1.70;;
13897;SDS011;7019;50.766;4.474;2023-07-24T07:16:56;3.53;;;1.83;;
13897;SDS011;7019;50.766;4.474;2023-07-24T07:19:24;3.13;;;2.00;;
13897;SDS011;7019;50.766;4.474;2023-07-24T07:21:51;3.57;;;2.30;;
13897;SDS011;7019;50.766;4.474;2023-07-24T07:24:18;2.10;;;1.60;;
13897;SDS011;7019;50.766;4.474;2023-07-24T07:26:45;2.00;;;1.87;;
13897;SDS011;7019;50.766;4.474;2023-07-24T07:29:13;3.03;;;2.17;;
13897;SDS011;7019;50.766;4.474;2023-07-24T07:31:40;4.70;;;2.30;;
13897;SDS011;7019;50.766;4.474;2023-07-24T07:34:07;2.70;;;2.23;;
13897;SDS011;7019;50.766;4.474;2023-07-24T07:36:34;4.10;;;2.50;;
13897;SDS011;7019;50.766;4.474;2023-07-24T07:39:02;2.87;;;2.13;;
13897;SDS011;7019;50.766;4.474;2023-07-24T07:41:29;4.03;;;2.23;;
13897;SDS011;7019;50.766;4.474;2023-07-24T07:43:56;2.80;;;2.00;;
13897;SDS011;7019;50.766;4.474;2023-07-24T07:46:25;4.10;;;2.50;;
13897;SDS011;7019;50.766;4.474;2023-07-24T07:48:52;2.63;;;1.93;;
13897;SDS011;7019;50.766;4.474;2023-07-24T07:51:19;2.27;;;1.90;;
13897;SDS011;7019;50.766;4.474;2023-07-24T07:53:46;2.07;;;1.87;;
13897;SDS011;7019;50.766;4.474;2023-07-24T07:56:13;3.77;;;1.90;;
13897;SDS011;7019;50.766;4.474;2023-07-24T07:58:40;3.33;;;1.53;;
13897;SDS011;7019;50.766;4.474;2023-07-24T08:01:07;5.30;;;2.50;;
13897;SDS011;7019;50.766;4.474;2023-07-24T08:03:35;3.40;;;2.20;;
13897;SDS011;7019;50.766;4.474;2023-07-24T08:06:03;4.17;;;2.07;;
13897;SDS011;7019;50.766;4.474;2023-07-24T08:08:31;3.67;;;2.03;;
13897;SDS011;7019;50.766;4.474;2023-07-24T08:10:58;1.63;;;1.53;;
13897;SDS011;7019;50.766;4.474;2023-07-24T08:13:29;1.73;;;1.63;;
13897;SDS011;7019;50.766;4.474;2023-07-24T08:15:56;2.93;;;1.80;;
13897;SDS011;7019;50.766;4.474;2023-07-24T08:18:24;2.73;;;1.33;;
13897;SDS011;7019;50.766;4.474;2023-07-24T08:20:53;2.50;;;1.43;;
13897;SDS011;7019;50.766;4.474;2023-07-24T08:23:20;1.57;;;1.47;;
13897;SDS011;7019;50.766;4.474;2023-07-24T08:25:50;2.10;;;1.80;;
13897;SDS011;7019;50.766;4.474;2023-07-24T08:28:18;2.07;;;1.63;;
13897;SDS011;7019;50.766;4.474;2023-07-24T08:30:45;2.63;;;1.70;;
13897;SDS011;7019;50.766;4.474;2023-07-24T08:33:13;2.40;;;1.90;;
13897;SDS011;7019;50.766;4.474;2023-07-24T08:35:40;4.80;;;1.87;;
13897;SDS011;7019;50.766;4.474;2023-07-24T08:38:08;3.03;;;1.67;;
13897;SDS011;7019;50.766;4.474;2023-07-24T08:40:35;3.60;;;1.90;;
13897;SDS011;7019;50.766;4.474;2023-07-24T08:43:04;1.93;;;1.60;;
13897;SDS011;7019;50.766;4.474;2023-07-24T08:45:31;2.10;;;1.90;;
13897;SDS011;7019;50.766;4.474;2023-07-24T08:47:59;2.30;;;1.73;;
13897;SDS011;7019;50.766;4.474;2023-07-24T08:50:26;3.47;;;1.73;;
13897;SDS011;7019;50.766;4.474;2023-07-24T08:52:53;6.57;;;1.80;;
13897;SDS011;7019;50.766;4.474;2023-07-24T08:55:23;6.73;;;1.73;;
13897;SDS011;7019;50.766;4.474;2023-07-24T08:57:53;5.00;;;1.90;;
13897;SDS011;7019;50.766;4.474;2023-07-24T09:00:20;3.10;;;1.87;;
13897;SDS011;7019;50.766;4.474;2023-07-24T09:02:47;4.07;;;2.30;;
13897;SDS011;7019;50.766;4.474;2023-07-24T09:05:14;3.13;;;2.10;;
13897;SDS011;7019;50.766;4.474;2023-07-24T09:07:42;3.30;;;2.03;;
13897;SDS011;7019;50.766;4.474;2023-07-24T09:10:09;3.63;;;2.20;;
13897;SDS011;7019;50.766;4.474;2023-07-24T09:12:38;2.73;;;2.10;;
13897;SDS011;7019;50.766;4.474;2023-07-24T09:15:08;2.67;;;2.07;;
13897;SDS011;7019;50.766;4.474;2023-07-24T09:17:35;3.67;;;1.90;;
13897;SDS011;7019;50.766;4.474;2023-07-24T09:20:02;3.13;;;2.20;;
13897;SDS011;7019;50.766;4.474;2023-07-24T09:22:31;5.20;;;2.60;;
13897;SDS011;7019;50.766;4.474;2023-07-24T09:24:58;7.40;;;2.50;;
13897;SDS011;7019;50.766;4.474;2023-07-24T09:27:28;5.00;;;2.83;;
13897;SDS011;7019;50.766;4.474;2023-07-24T09:29:57;14.00;;;4.20;;
13897;SDS011;7019;50.766;4.474;2023-07-24T09:32:25;6.43;;;2.90;;
13897;SDS011;7019;50.766;4.474;2023-07-24T09:34:53;7.03;;;3.60;;
13897;SDS011;7019;50.766;4.474;2023-07-24T09:37:24;3.80;;;2.97;;
13897;SDS011;7019;50.766;4.474;2023-07-24T09:39:52;5.67;;;2.80;;
13897;SDS011;7019;50.766;4.474;2023-07-24T09:42:27;5.80;;;2.83;;
13897;SDS011;7019;50.766;4.474;2023-07-24T09:44:55;3.73;;;2.67;;
13897;SDS011;7019;50.766;4.474;2023-07-24T09:47:24;4.20;;;2.80;;
13897;SDS011;7019;50.766;4.474;2023-07-24T09:49:52;3.80;;;2.00;;
13897;SDS011;7019;50.766;4.474;2023-07-24T09:52:19;3.47;;;2.30;;
13897;SDS011;7019;50.766;4.474;2023-07-24T09:54:49;3.13;;;2.53;;
13897;SDS011;7019;50.766;4.474;2023-07-24T09:57:22;3.10;;;2.40;;
13897;SDS011;7019;50.766;4.474;2023-07-24T09:59:50;5.53;;;1.77;;
13897;SDS011;7019;50.766;4.474;2023-07-24T10:02:19;2.50;;;1.77;;
13897;SDS011;7019;50.766;4.474;2023-07-24T10:04:49;3.03;;;1.87;;
13897;SDS011;7019;50.766;4.474;2023-07-24T10:07:16;2.87;;;2.13;;
13897;SDS011;7019;50.766;4.474;2023-07-24T10:09:46;3.20;;;1.93;;
13897;SDS011;7019;50.766;4.474;2023-07-24T10:12:15;2.37;;;1.60;;
13897;SDS011;7019;50.766;4.474;2023-07-24T10:14:43;2.10;;;1.80;;
13897;SDS011;7019;50.766;4.474;2023-07-24T10:17:11;1.93;;;1.50;;
13897;SDS011;7019;50.766;4.474;2023-07-24T10:19:39;2.78;;;2.20;;
13897;SDS011;7019;50.766;4.474;2023-07-24T10:22:09;2.40;;;2.00;;
13897;SDS011;7019;50.766;4.474;2023-07-24T10:24:44;1.80;;;1.40;;
13897;SDS011;7019;50.766;4.474;2023-07-24T10:27:11;2.23;;;1.53;;
13897;SDS011;7019;50.766;4.474;2023-07-24T10:29:38;3.40;;;1.50;;
13897;SDS011;7019;50.766;4.474;2023-07-24T10:32:16;1.97;;;1.67;;
13897;SDS011;7019;50.766;4.474;2023-07-24T10:34:43;2.20;;;1.80;;
13897;SDS011;7019;50.766;4.474;2023-07-24T10:37:12;2.60;;;2.13;;
13897;SDS011;7019;50.766;4.474;2023-07-24T10:39:39;3.67;;;1.77;;
13897;SDS011;7019;50.766;4.474;2023-07-24T10:42:07;1.87;;;1.60;;
13897;SDS011;7019;50.766;4.474;2023-07-24T10:44:35;2.40;;;1.57;;
13897;SDS011;7019;50.766;4.474;2023-07-24T10:47:03;2.23;;;1.57;;
13897;SDS011;7019;50.766;4.474;2023-07-24T10:49:30;2.07;;;1.77;;
13897;SDS011;7019;50.766;4.474;2023-07-24T10:51:57;3.23;;;1.90;;
13897;SDS011;7019;50.766;4.474;2023-07-24T10:54:26;1.93;;;1.67;;
13897;SDS011;7019;50.766;4.474;2023-07-24T10:56:59;3.43;;;1.97;;
13897;SDS011;7019;50.766;4.474;2023-07-24T10:59:36;2.83;;;1.90;;
13897;SDS011;7019;50.766;4.474;2023-07-24T11:02:04;2.30;;;2.10;;
13897;SDS011;7019;50.766;4.474;2023-07-24T11:04:32;1.80;;;1.53;;
13897;SDS011;7019;50.766;4.474;2023-07-24T11:06:59;3.00;;;1.80;;
13897;SDS011;7019;50.766;4.474;2023-07-24T11:09:38;2.00;;;1.80;;
13897;SDS011;7019;50.766;4.474;2023-07-24T11:12:09;4.17;;;1.60;;
13897;SDS011;7019;50.766;4.474;2023-07-24T11:14:45;2.97;;;2.27;;
13897;SDS011;7019;50.766;4.474;2023-07-24T11:17:16;2.53;;;2.07;;
13897;SDS011;7019;50.766;4.474;2023-07-24T11:19:43;3.30;;;2.37;;
13897;SDS011;7019;50.766;4.474;2023-07-24T11:22:10;2.70;;;2.07;;
13897;SDS011;7019;50.766;4.474;2023-07-24T11:24:45;4.50;;;2.10;;
13897;SDS011;7019;50.766;4.474;2023-07-24T11:27:13;3.03;;;2.27;;
13897;SDS011;7019;50.766;4.474;2023-07-24T11:29:41;3.30;;;2.10;;
13897;SDS011;7019;50.766;4.474;2023-07-24T11:32:08;4.43;;;2.50;;
13897;SDS011;7019;50.766;4.474;2023-07-24T11:34:35;3.07;;;2.30;;
13897;SDS011;7019;50.766;4.474;2023-07-24T11:37:03;3.67;;;2.10;;
13897;SDS011;7019;50.766;4.474;2023-07-24T11:39:31;2.83;;;2.33;;
13897;SDS011;7019;50.766;4.474;2023-07-24T11:42:00;4.47;;;2.87;;
13897;SDS011;7019;50.766;4.474;2023-07-24T11:44:28;3.13;;;2.40;;
13897;SDS011;7019;50.766;4.474;2023-07-24T11:47:01;3.23;;;2.60;;
13897;SDS011;7019;50.766;4.474;2023-07-24T11:49:29;2.73;;;2.30;;
13897;SDS011;7019;50.766;4.474;2023-07-24T11:52:00;3.23;;;2.50;;
13897;SDS011;7019;50.766;4.474;2023-07-24T11:54:29;6.13;;;2.57;;
13897;SDS011;7019;50.766;4.474;2023-07-24T11:56:56;5.53;;;2.33;;
13897;SDS011;7019;50.766;4.474;2023-07-24T11:59:24;3.13;;;2.80;;
13897;SDS011;7019;50.766;4.474;2023-07-24T12:01:52;3.40;;;2.50;;
13897;SDS011;7019;50.766;4.474;2023-07-24T12:04:19;3.73;;;2.53;;
13897;SDS011;7019;50.766;4.474;2023-07-24T12:06:46;2.67;;;2.43;;
13897;SDS011;7019;50.766;4.474;2023-07-24T12:09:13;2.90;;;2.20;;
13897;SDS011;7019;50.766;4.474;2023-07-24T12:11:40;3.97;;;3.20;;
13897;SDS011;7019;50.766;4.474;2023-07-24T12:14:09;4.20;;;2.60;;
13897;SDS011;7019;50.766;4.474;2023-07-24T12:16:38;3.40;;;2.97;;
13897;SDS011;7019;50.766;4.474;2023-07-24T12:19:05;5.07;;;2.83;;
13897;SDS011;7019;50.766;4.474;2023-07-24T12:21:32;2.77;;;2.50;;
13897;SDS011;7019;50.766;4.474;2023-07-24T12:23:59;2.97;;;2.67;;
13897;SDS011;7019;50.766;4.474;2023-07-24T12:26:26;3.07;;;2.30;;
13897;SDS011;7019;50.766;4.474;2023-07-24T12:28:53;2.67;;;2.40;;
13897;SDS011;7019;50.766;4.474;2023-07-24T12:31:20;3.85;;;1.90;;
13897;SDS011;7019;50.766;4.474;2023-07-24T12:33:49;3.92;;;2.30;;
13897;SDS011;7019;50.766;4.474;2023-07-24T12:36:16;3.25;;;2.40;;
13897;SDS011;7019;50.766;4.474;2023-07-24T12:38:43;3.75;;;2.35;;
13897;SDS011;7019;50.766;4.474;2023-07-24T12:41:12;4.07;;;2.75;;
13897;SDS011;7019;50.766;4.474;2023-07-24T12:43:39;3.03;;;2.42;;
13897;SDS011;7019;50.766;4.474;2023-07-24T12:46:06;7.38;;;2.55;;
13897;SDS011;7019;50.766;4.474;2023-07-24T12:48:33;4.70;;;2.72;;
13897;SDS011;7019;50.766;4.474;2023-07-24T12:51:02;3.70;;;2.30;;
13897;SDS011;7019;50.766;4.474;2023-07-24T12:53:29;4.23;;;2.20;;
13897;SDS011;7019;50.766;4.474;2023-07-24T12:55:56;2.63;;;2.33;;
13897;SDS011;7019;50.766;4.474;2023-07-24T12:58:24;2.30;;;2.10;;
13897;SDS011;7019;50.766;4.474;2023-07-24T13:00:51;3.30;;;1.92;;
13897;SDS011;7019;50.766;4.474;2023-07-24T13:03:18;4.18;;;2.97;;
13897;SDS011;7019;50.766;4.474;2023-07-24T13:05:46;3.10;;;2.03;;
13897;SDS011;7019;50.766;4.474;2023-07-24T13:08:15;4.82;;;2.65;;
13897;SDS011;7019;50.766;4.474;2023-07-24T13:10:46;3.22;;;2.00;;
13897;SDS011;7019;50.766;4.474;2023-07-24T13:13:14;2.90;;;2.08;;
13897;SDS011;7019;50.766;4.474;2023-07-24T13:15:41;3.13;;;2.22;;
13897;SDS011;7019;50.766;4.474;2023-07-24T13:18:08;3.65;;;2.25;;
13897;SDS011;7019;50.766;4.474;2023-07-24T13:20:38;3.17;;;2.77;;
13897;SDS011;7019;50.766;4.474;2023-07-24T13:23:06;2.73;;;2.53;;
13897;SDS011;7019;50.766;4.474;2023-07-24T13:25:34;3.53;;;2.27;;
13897;SDS011;7019;50.766;4.474;2023-07-24T13:28:01;3.07;;;2.30;;
13897;SDS011;7019;50.766;4.474;2023-07-24T13:30:28;4.23;;;2.43;;
13897;SDS011;7019;50.766;4.474;2023-07-24T13:32:55;3.97;;;2.40;;
13897;SDS011;7019;50.766;4.474;2023-07-24T13:35:22;3.23;;;2.60;;
13897;SDS011;7019;50.766;4.474;2023-07-24T13:37:49;3.97;;;2.60;;
13897;SDS011;7019;50.766;4.474;2023-07-24T13:40:16;4.80;;;2.60;;
13897;SDS011;7019;50.766;4.474;2023-07-24T13:42:45;4.70;;;2.83;;
13897;SDS011;7019;50.766;4.474;2023-07-24T13:45:12;3.60;;;3.03;;
13897;SDS011;7019;50.766;4.474;2023-07-24T13:47:39;4.40;;;2.73;;
13897;SDS011;7019;50.766;4.474;2023-07-24T13:50:06;5.73;;;3.10;;
13897;SDS011;7019;50.766;4.474;2023-07-24T13:52:34;3.00;;;2.40;;
13897;SDS011;7019;50.766;4.474;2023-07-24T13:55:01;2.80;;;2.43;;
13897;SDS011;7019;50.766;4.474;2023-07-24T13:57:28;3.27;;;2.50;;
13897;SDS011;7019;50.766;4.474;2023-07-24T13:59:56;3.03;;;2.70;;
13897;SDS011;7019;50.766;4.474;2023-07-24T14:02:23;3.80;;;2.50;;
13897;SDS011;7019;50.766;4.474;2023-07-24T14:04:52;3.90;;;2.60;;
13897;SDS011;7019;50.766;4.474;2023-07-24T14:07:19;2.60;;;2.13;;
13897;SDS011;7019;50.766;4.474;2023-07-24T14:09:46;3.27;;;2.67;;
13897;SDS011;7019;50.766;4.474;2023-07-24T14:12:13;2.53;;;2.33;;
13897;SDS011;7019;50.766;4.474;2023-07-24T14:14:40;2.77;;;2.47;;
13897;SDS011;7019;50.766;4.474;2023-07-24T14:17:08;3.13;;;2.37;;
13897;SDS011;7019;50.766;4.474;2023-07-24T14:19:35;2.60;;;2.10;;
13897;SDS011;7019;50.766;4.474;2023-07-24T14:22:03;2.87;;;1.73;;
13897;SDS011;7019;50.766;4.474;2023-07-24T14:24:30;3.37;;;2.60;;
13897;SDS011;7019;50.766;4.474;2023-07-24T14:26:57;3.73;;;2.13;;
13897;SDS011;7019;50.766;4.474;2023-07-24T14:29:24;3.20;;;2.23;;
13897;SDS011;7019;50.766;4.474;2023-07-24T14:31:51;2.37;;;2.07;;
13897;SDS011;7019;50.766;4.474;2023-07-24T14:34:19;3.30;;;1.93;;
13897;SDS011;7019;50.766;4.474;2023-07-24T14:36:46;2.07;;;1.47;;
13897;SDS011;7019;50.766;4.474;2023-07-24T14:39:14;3.30;;;1.90;;
13897;SDS011;7019;50.766;4.474;2023-07-24T14:41:41;2.90;;;1.90;;
13897;SDS011;7019;50.766;4.474;2023-07-24T14:44:08;1.97;;;1.70;;
13897;SDS011;7019;50.766;4.474;2023-07-24T14:46:35;3.77;;;1.83;;
13897;SDS011;7019;50.766;4.474;2023-07-24T14:49:02;3.27;;;2.20;;
13897;SDS011;7019;50.766;4.474;2023-07-24T14:51:31;2.83;;;1.90;;
13897;SDS011;7019;50.766;4.474;2023-07-24T14:53:58;2.97;;;2.30;;
13897;SDS011;7019;50.766;4.474;2023-07-24T14:56:25;2.40;;;1.73;;
13897;SDS011;7019;50.766;4.474;2023-07-24T14:58:52;3.50;;;1.90;;
13897;SDS011;7019;50.766;4.474;2023-07-24T15:01:19;2.13;;;1.70;;
13897;SDS011;7019;50.766;4.474;2023-07-24T15:03:46;3.23;;;2.00;;